createdAt,value
2023-10-20T00:12:30.872Z,57.7
2023-10-20T00:42:31.271Z,57.8
2023-10-20T01:12:32.142Z,58
2023-10-20T01:42:32.546Z,58.1
2023-10-20T02:12:32.940Z,58.3
2023-10-20T02:42:33.320Z,58.4
2023-10-20T03:12:33.678Z,58.5
2023-10-20T03:42:34.083Z,58.5
2023-10-20T04:12:34.461Z,58.5
2023-10-20T05:12:45.696Z,58.5
2023-10-20T06:12:56.582Z,58.3
2023-10-20T06:42:57.429Z,58.4
2023-10-20T07:12:57.821Z,58.4
2023-10-20T07:42:58.881Z,58.5
2023-10-20T08:12:59.657Z,59.4
2023-10-20T08:43:00.109Z,59.1
2023-10-20T09:13:00.542Z,59.3
2023-10-20T09:43:05.025Z,59.2
2023-10-20T10:13:11.159Z,59.2
2023-10-20T10:43:11.713Z,59.3
2023-10-20T11:43:22.933Z,59.2
2023-10-20T12:43:33.866Z,59.7
2023-10-20T13:13:34.279Z,59.7
2023-10-20T13:43:34.730Z,60
2023-10-20T14:13:35.719Z,59.9
2023-10-20T14:43:36.208Z,60.1
2023-10-20T15:13:36.984Z,59.8
2023-10-20T15:43:37.408Z,59.8
2023-10-20T16:13:37.844Z,59.7
2023-10-20T16:43:38.615Z,59.6
2023-10-20T17:13:39.037Z,59.5
2023-10-20T17:43:39.556Z,59.4
2023-10-20T18:13:39.965Z,59.5
2023-10-20T19:13:51.525Z,60.2
2023-10-20T20:14:03.158Z,59.5
2023-10-20T20:44:04.139Z,59.5
2023-10-20T21:14:04.564Z,59.4
2023-10-20T21:44:05.471Z,59.8
2023-10-20T22:14:05.963Z,59.5
2023-10-20T22:44:06.361Z,59.5
2023-10-20T23:14:06.761Z,59.6
2023-10-20T23:44:07.215Z,59.7
